Terminal Aerodrome Forecast
Issued by NWS

Home | Current Version | Previous Version | Text Only | Print | Product List | Glossary On
Versions: 1 2 3 4 5 6 7 8 9 10 11 12 13 14 15 16 17
217
FTAK31 PAJN 242336
TAFAWG
TAF
PAWG 242336Z 2500/2524 11009KT P6SM FEW015 BKN035 OVC040
     FM250300 11012G18KT 6SM -SHRA OVC025 WS020/13035KT
     FM251500 11010KT P6SM OVC050 WS020/13030KT
      AMD LTD TO CLD VIS AND WIND 2506/2515=

USA.gov is the U.S. government's official web portal to all federal, state and local government web resources and services.